Time;durP1;ratioP1;P1;durP2;ratioP2;P2;SDS_P1;SDS_P2;PMS_P1;PMS_P2;Temp;Humidity;BMP_temperature;BMP_pressure;BME280_temperature;BME280_humidity;BME280_pressure;Samples;Min_cycle;Max_cycle;Signal;HPM_P1;HPM_P2
2021/06/04 00:01:06;;;;;;;4.07;2.53;;;18.30;99.90;;;;;;5073141;28;20044;-77
2021/06/04 00:03:33;;;;;;;4.78;2.63;;;18.30;99.90;;;;;;5073175;28;20044;-77
2021/06/04 00:05:59;;;;;;;4.15;2.28;;;18.30;99.90;;;;;;5072808;28;20130;-77
2021/06/04 00:08:26;;;;;;;4.38;2.35;;;18.30;99.90;;;;;;5073288;28;20131;-79
2021/06/04 00:10:55;;;;;;;3.83;2.33;;;18.30;99.90;;;;;;5073322;28;20131;-75
2021/06/04 00:13:28;;;;;;;4.32;2.67;;;18.30;99.90;;;;;;5072512;28;20127;-78
2021/06/04 00:16:00;;;;;;;8.10;4.55;;;18.30;99.90;;;;;;5073077;28;20540;-77
2021/06/04 00:18:30;;;;;;;8.82;5.13;;;18.30;99.90;;;;;;5073152;28;20120;-77
2021/06/04 00:20:57;;;;;;;5.68;3.30;;;18.40;99.90;;;;;;5072812;28;20059;-78
2021/06/04 00:23:24;;;;;;;4.63;2.45;;;18.40;99.90;;;;;;5072818;28;20080;-78
2021/06/04 00:25:50;;;;;;;4.22;2.30;;;18.40;99.90;;;;;;5072988;28;20565;-77
2021/06/04 00:28:17;;;;;;;3.55;2.30;;;18.40;99.90;;;;;;5072313;28;20054;-78
2021/06/04 00:30:44;;;;;;;5.05;2.35;;;18.40;99.90;;;;;;5073000;28;20548;-78
2021/06/04 00:33:10;;;;;;;3.35;1.98;;;18.30;99.90;;;;;;5072881;28;20577;-77
2021/06/04 00:35:40;;;;;;;4.35;2.60;;;18.30;99.90;;;;;;5072856;28;20513;-79
2021/06/04 00:38:09;;;;;;;3.58;2.28;;;18.40;99.90;;;;;;5073150;28;20132;-76
2021/06/04 00:40:41;;;;;;;3.72;2.22;;;18.30;99.90;;;;;;5072293;28;20079;-77
2021/06/04 00:43:09;;;;;;;3.92;2.40;;;18.40;99.90;;;;;;5074618;28;20048;-77
2021/06/04 00:45:40;;;;;;;3.58;2.20;;;18.40;99.90;;;;;;5076898;28;20087;-77
2021/06/04 00:48:08;;;;;;;3.72;2.20;;;18.40;99.90;;;;;;5077087;28;20132;-77
2021/06/04 00:50:41;;;;;;;4.05;2.30;;;18.30;99.90;;;;;;5076530;28;20127;-77
2021/06/04 00:53:08;;;;;;;4.88;2.28;;;18.30;99.90;;;;;;5076676;28;20064;-78
2021/06/04 00:55:36;;;;;;;3.60;2.20;;;18.30;99.90;;;;;;5076333;28;20120;-77
2021/06/04 00:58:04;;;;;;;4.25;2.25;;;18.30;99.90;;;;;;5076099;28;20505;-78
2021/06/04 01:00:35;;;;;;;4.13;2.28;;;18.30;99.90;;;;;;5076200;28;20076;-78
2021/06/04 01:03:04;;;;;;;3.70;2.13;;;18.30;99.90;;;;;;5076311;28;20497;-77
2021/06/04 01:05:32;;;;;;;4.53;2.10;;;18.20;99.90;;;;;;5076683;28;20072;-77
2021/06/04 01:08:21;;;;;;;3.78;2.20;;;18.20;99.90;;;;;;5076375;28;20084;-75
2021/06/04 01:11:07;;;;;;;3.65;2.33;;;18.20;99.90;;;;;;5061185;28;20080;-75
2021/06/04 01:13:44;;;;;;;4.20;2.40;;;18.20;99.90;;;;;;5075745;28;20135;-77
2021/06/04 01:16:20;;;;;;;4.40;2.03;;;18.10;99.90;;;;;;5076186;28;20051;-78
2021/06/04 01:19:20;;;;;;;3.85;2.20;;;18.10;99.90;;;;;;5076455;28;20409;-76
2021/06/04 01:21:52;;;;;;;7.85;3.38;;;18.00;99.90;;;;;;5075965;28;20052;-77
2021/06/04 01:24:39;;;;;;;5.10;2.55;;;18.00;99.90;;;;;;5075845;28;20049;-76
2021/06/04 01:27:11;;;;;;;4.72;2.40;;;18.00;99.90;;;;;;5075972;28;20123;-77
2021/06/04 01:29:43;;;;;;;3.60;2.30;;;17.90;99.90;;;;;;5076056;28;20052;-75
2021/06/04 01:32:16;;;;;;;7.53;4.28;;;17.90;99.90;;;;;;5075995;28;20083;-79
2021/06/04 01:34:46;;;;;;;10.68;4.70;;;17.90;99.90;;;;;;5060155;28;20127;-76
2021/06/04 01:37:19;;;;;;;6.45;3.40;;;17.80;99.90;;;;;;5075586;28;20127;-77
2021/06/04 01:39:55;;;;;;;3.58;2.20;;;17.80;99.90;;;;;;5075653;28;20484;-78
2021/06/04 01:42:28;;;;;;;4.43;2.20;;;17.70;99.90;;;;;;5075444;28;20058;-77
2021/06/04 01:45:03;;;;;;;4.15;2.20;;;17.60;99.90;;;;;;5075936;28;20174;-77
2021/06/04 01:47:35;;;;;;;4.15;2.40;;;17.60;99.90;;;;;;5076186;28;20482;-77
2021/06/04 01:50:09;;;;;;;3.88;2.25;;;17.60;99.90;;;;;;5075924;28;20474;-77
2021/06/04 01:52:39;;;;;;;3.45;2.30;;;17.60;99.90;;;;;;5074862;28;20157;-77
2021/06/04 01:55:11;;;;;;;3.15;2.10;;;17.50;99.90;;;;;;5074513;28;20135;-77
2021/06/04 01:57:43;;;;;;;4.05;2.28;;;17.50;99.90;;;;;;5075440;28;20135;-76
2021/06/04 02:00:23;;;;;;;6.57;2.20;;;17.50;99.90;;;;;;5075964;28;20139;-77
2021/06/04 02:02:50;;;;;;;3.10;2.00;;;17.50;99.90;;;;;;5060040;28;20520;-77
2021/06/04 02:05:22;;;;;;;4.85;2.13;;;17.50;99.90;;;;;;5075185;28;20099;-77
2021/06/04 02:07:49;;;;;;;4.13;2.30;;;17.50;99.90;;;;;;5076307;28;20076;-76
2021/06/04 02:10:21;;;;;;;4.20;2.28;;;17.50;99.90;;;;;;5074742;28;20461;-77
2021/06/04 02:12:50;;;;;;;3.40;2.13;;;17.50;99.90;;;;;;5075521;28;20561;-75
2021/06/04 02:15:25;;;;;;;3.67;2.35;;;17.40;99.90;;;;;;5073989;28;20068;-77
2021/06/04 02:17:58;;;;;;;4.35;2.13;;;17.40;99.90;;;;;;5074854;28;20044;-76
2021/06/04 02:20:31;;;;;;;5.35;2.45;;;17.30;99.90;;;;;;5074534;28;20083;-77
2021/06/04 02:23:08;;;;;;;4.22;2.10;;;17.30;99.90;;;;;;5074868;28;20127;-78
2021/06/04 02:25:46;;;;;;;4.47;2.20;;;17.30;99.90;;;;;;5074584;28;20135;-77
2021/06/04 02:28:25;;;;;;;4.13;1.80;;;17.30;99.90;;;;;;5074280;28;20418;-77
2021/06/04 02:31:02;;;;;;;3.58;2.00;;;17.30;99.90;;;;;;5068638;28;20132;-78
2021/06/04 02:33:37;;;;;;;4.28;2.13;;;17.30;99.90;;;;;;5074790;28;20131;-77
2021/06/04 02:36:09;;;;;;;4.10;2.22;;;17.20;99.90;;;;;;5074858;28;20481;-76
2021/06/04 02:38:41;;;;;;;3.30;2.10;;;17.20;99.90;;;;;;5075493;28;20140;-75
2021/06/04 02:41:14;;;;;;;4.20;2.20;;;17.10;99.90;;;;;;5075806;28;20131;-76
2021/06/04 02:43:45;;;;;;;3.85;2.17;;;16.90;99.90;;;;;;5075166;28;20135;-78
2021/06/04 02:46:19;;;;;;;3.75;2.10;;;16.80;99.90;;;;;;5074817;28;20461;-77
2021/06/04 02:48:49;;;;;;;5.03;2.20;;;16.80;99.90;;;;;;5075386;28;20052;-75
2021/06/04 02:51:27;;;;;;;5.15;2.25;;;16.70;99.90;;;;;;5059495;28;20984;-75
2021/06/04 02:53:56;;;;;;;5.32;1.90;;;16.60;99.90;;;;;;5054956;28;20123;-76
2021/06/04 02:56:29;;;;;;;3.13;1.80;;;16.60;99.90;;;;;;5063938;28;20079;-76
2021/06/04 02:59:02;;;;;;;4.32;2.20;;;16.70;99.90;;;;;;5074310;28;20127;-77
2021/06/04 03:01:31;;;;;;;5.22;2.42;;;16.70;99.90;;;;;;5073880;28;20040;-77
2021/06/04 03:04:01;;;;;;;3.65;2.10;;;16.70;99.90;;;;;;5070896;28;20123;-74
2021/06/04 03:06:33;;;;;;;3.95;2.40;;;16.80;99.90;;;;;;5070753;28;20044;-77
2021/06/04 03:09:01;;;;;;;3.55;2.10;;;16.80;99.90;;;;;;5069566;28;20044;-75
2021/06/04 03:11:30;;;;;;;4.68;2.05;;;16.80;99.90;;;;;;5070397;28;20429;-75
2021/06/04 03:13:59;;;;;;;4.78;2.15;;;16.80;99.90;;;;;;5070561;28;20136;-80
2021/06/04 03:16:27;;;;;;;3.72;2.20;;;16.80;99.90;;;;;;5069791;28;20502;-76
2021/06/04 03:18:57;;;;;;;3.53;1.90;;;16.80;99.90;;;;;;5070270;28;20123;-76
2021/06/04 03:21:30;;;;;;;3.63;2.00;;;16.80;99.90;;;;;;5070049;28;20055;-74
2021/06/04 03:23:58;;;;;;;3.25;2.10;;;16.80;99.90;;;;;;5070705;28;20135;-77
2021/06/04 03:26:28;;;;;;;3.90;2.20;;;16.80;99.90;;;;;;5070444;28;20135;-75
2021/06/04 03:29:00;;;;;;;4.68;2.22;;;16.80;99.90;;;;;;5070347;28;20556;-77
2021/06/04 03:31:33;;;;;;;3.85;2.20;;;16.80;99.90;;;;;;5070141;28;20036;-75
2021/06/04 03:34:01;;;;;;;3.55;2.05;;;16.70;99.90;;;;;;5069940;28;20492;-75
2021/06/04 03:36:31;;;;;;;4.30;2.00;;;16.70;99.90;;;;;;5069539;28;20135;-75
2021/06/04 03:38:58;;;;;;;4.35;2.10;;;16.70;99.90;;;;;;5069854;28;20131;-76
2021/06/04 03:41:28;;;;;;;3.70;1.90;;;16.70;99.90;;;;;;5069819;28;20051;-77
2021/06/04 03:43:57;;;;;;;4.90;2.20;;;16.70;99.90;;;;;;5069908;28;20052;-78
2021/06/04 03:46:24;;;;;;;3.70;2.08;;;16.70;99.90;;;;;;5069802;28;20628;-76
2021/06/04 03:48:50;;;;;;;3.58;2.28;;;16.70;99.90;;;;;;5069697;28;20513;-76
2021/06/04 03:51:22;;;;;;;5.50;2.33;;;16.80;99.90;;;;;;5069618;28;20553;-76
2021/06/04 03:53:49;;;;;;;6.30;2.22;;;16.80;99.90;;;;;;5070065;28;20136;-76
2021/06/04 03:56:21;;;;;;;3.80;2.15;;;16.80;99.90;;;;;;5069526;28;20123;-74
2021/06/04 03:58:49;;;;;;;3.58;2.10;;;16.70;99.90;;;;;;5069756;28;20468;-76
2021/06/04 04:01:24;;;;;;;4.38;2.20;;;16.70;99.90;;;;;;5070122;28;20189;-76
2021/06/04 04:03:51;;;;;;;4.05;2.10;;;16.60;99.90;;;;;;5073153;28;20056;-75
2021/06/04 04:06:17;;;;;;;3.88;1.90;;;16.60;99.90;;;;;;5073432;28;20187;-75
2021/06/04 04:08:44;;;;;;;4.00;2.00;;;16.60;99.90;;;;;;5073261;28;20472;-75
2021/06/04 04:11:11;;;;;;;3.33;2.03;;;16.60;99.90;;;;;;5073047;28;20047;-76
2021/06/04 04:13:37;;;;;;;4.50;1.92;;;16.70;99.90;;;;;;5072990;28;20128;-76
2021/06/04 04:16:05;;;;;;;3.95;2.08;;;16.70;99.90;;;;;;5072558;28;20135;-75
2021/06/04 04:18:33;;;;;;;3.42;2.08;;;16.80;99.90;;;;;;5072999;28;20076;-76
2021/06/04 04:21:03;;;;;;;4.00;2.25;;;16.80;99.90;;;;;;5073193;28;20080;-75
2021/06/04 04:23:35;;;;;;;3.58;2.10;;;16.90;99.90;;;;;;5073108;28;20503;-77
2021/06/04 04:26:04;;;;;;;3.05;1.90;;;16.90;99.90;;;;;;5073179;28;20182;-76
2021/06/04 04:28:35;;;;;;;5.45;2.47;;;17.00;99.90;;;;;;5072803;28;20140;-78
2021/06/04 04:31:04;;;;;;;4.35;2.90;;;17.00;99.90;;;;;;5072545;28;20128;-76
2021/06/04 04:33:32;;;;;;;4.97;2.90;;;17.00;99.90;;;;;;5073240;28;20072;-78
2021/06/04 04:36:00;;;;;;;4.70;2.78;;;17.00;99.90;;;;;;5073105;28;20131;-76
2021/06/04 04:38:26;;;;;;;4.93;2.60;;;17.00;99.90;;;;;;5072760;28;20080;-77
2021/06/04 04:41:01;;;;;;;4.70;2.60;;;17.00;99.90;;;;;;5073093;28;20076;-79
2021/06/04 04:43:28;;;;;;;;;;;17.00;99.90;;;;;;5073104;28;20489;-78
2021/06/04 04:45:55;;;;;;;5.35;2.70;;;17.00;99.90;;;;;;5072028;28;20018;-78
2021/06/04 04:48:22;;;;;;;4.05;2.38;;;17.10;99.90;;;;;;5072750;28;20064;-79
2021/06/04 04:50:51;;;;;;;4.53;2.63;;;17.10;99.90;;;;;;5073362;28;20136;-78
2021/06/04 04:53:18;;;;;;;4.75;2.65;;;17.20;99.90;;;;;;5072633;28;20174;-78
2021/06/04 04:55:45;;;;;;;4.47;2.70;;;17.20;99.90;;;;;;5111860;22;20193;-82
2021/06/04 04:58:12;;;;;;;4.32;2.63;;;17.20;99.90;;;;;;5092783;28;20147;-81
2021/06/04 05:00:42;;;;;;;5.88;2.58;;;17.20;99.90;;;;;;5092725;28;20146;-80
2021/06/04 05:03:12;;;;;;;3.70;2.40;;;17.20;99.90;;;;;;5092342;28;20134;-81
2021/06/04 05:05:39;;;;;;;5.05;2.60;;;17.20;99.90;;;;;;5089789;28;20477;-81
2021/06/04 05:08:08;;;;;;;4.43;2.75;;;17.20;99.90;;;;;;5091584;28;20072;-82
2021/06/04 05:10:36;;;;;;;4.30;2.50;;;17.30;99.90;;;;;;5092414;28;20602;-83
2021/06/04 05:13:06;;;;;;;4.65;2.85;;;17.30;99.90;;;;;;5092410;28;20083;-82
2021/06/04 05:15:36;;;;;;;4.65;2.47;;;17.30;99.90;;;;;;5092514;28;20052;-82
2021/06/04 05:18:04;;;;;;;3.85;2.25;;;17.40;99.90;;;;;;5092770;28;20076;-82
2021/06/04 05:20:31;;;;;;;4.00;2.67;;;17.40;99.90;;;;;;5092701;28;20131;-84
2021/06/04 05:22:59;;;;;;;4.15;2.40;;;17.50;99.90;;;;;;5092261;28;20142;-81
2021/06/04 05:25:31;;;;;;;4.70;2.47;;;17.50;99.90;;;;;;5092452;28;20126;-82
2021/06/04 05:27:59;;;;;;;6.03;2.83;;;17.60;99.90;;;;;;5092702;28;20131;-83
2021/06/04 05:30:31;;;;;;;6.15;2.60;;;17.70;99.90;;;;;;5095176;28;20048;-81
2021/06/04 05:32:58;;;;;;;4.32;2.72;;;17.70;99.90;;;;;;5090394;28;20130;-80
2021/06/04 05:35:27;;;;;;;5.93;2.55;;;17.80;99.90;;;;;;5092396;28;20497;-81
2021/06/04 05:37:55;;;;;;;5.57;2.72;;;17.80;99.90;;;;;;5097123;28;20083;-82
2021/06/04 05:40:28;;;;;;;3.50;2.30;;;17.90;99.90;;;;;;5097870;28;20131;-80
2021/06/04 05:42:55;;;;;;;4.07;2.80;;;18.00;99.90;;;;;;5084017;28;20150;-81
2021/06/04 05:45:26;;;;;;;5.10;2.95;;;18.10;99.90;;;;;;5090929;28;20135;-81
2021/06/04 05:47:53;;;;;;;4.70;2.85;;;18.10;99.90;;;;;;5092815;28;20068;-80
2021/06/04 05:50:26;;;;;;;5.60;2.85;;;18.20;99.90;;;;;;5085488;28;20472;-82
2021/06/04 05:52:53;;;;;;;5.13;2.97;;;18.30;99.90;;;;;;5096014;28;20094;-82
2021/06/04 05:55:26;;;;;;;5.47;2.72;;;18.30;99.90;;;;;;5079236;28;20511;-81
2021/06/04 05:57:55;;;;;;;5.20;2.60;;;18.40;99.90;;;;;;5080581;28;20119;-84
2021/06/04 06:00:27;;;;;;;4.00;2.60;;;18.50;99.90;;;;;;5097832;28;20139;-81
2021/06/04 06:02:55;;;;;;;4.40;2.50;;;18.60;99.90;;;;;;5096745;28;20706;-81
2021/06/04 06:05:22;;;;;;;5.07;2.50;;;18.60;99.90;;;;;;5080455;28;20135;-80
2021/06/04 06:07:49;;;;;;;3.90;2.28;;;18.70;99.90;;;;;;5095251;28;20174;-80
2021/06/04 06:10:16;;;;;;;4.47;2.63;;;18.70;99.90;;;;;;5095213;28;20127;-82
2021/06/04 06:12:42;;;;;;;4.53;2.20;;;18.80;99.90;;;;;;5094386;28;20102;-83
2021/06/04 06:15:13;;;;;;;4.60;2.40;;;18.90;99.80;;;;;;5076685;28;20044;-82
2021/06/04 06:17:40;;;;;;;3.58;2.15;;;18.90;99.80;;;;;;5094639;28;20074;-82
2021/06/04 06:20:09;;;;;;;6.40;2.40;;;19.00;99.70;;;;;;5095168;28;20044;-82
2021/06/04 06:22:36;;;;;;;5.43;2.85;;;19.10;99.60;;;;;;5094755;28;20131;-77
2021/06/04 06:25:06;;;;;;;5.82;2.70;;;19.20;99.50;;;;;;5091267;28;20147;-79
2021/06/04 06:27:32;;;;;;;4.82;2.35;;;19.30;99.40;;;;;;5093459;28;20127;-79
2021/06/04 06:29:59;;;;;;;6.05;2.90;;;19.30;99.40;;;;;;5094942;28;20469;-79
2021/06/04 06:32:27;;;;;;;4.00;2.50;;;19.40;99.40;;;;;;5094334;28;20570;-80
2021/06/04 06:34:54;;;;;;;5.75;2.70;;;19.50;99.30;;;;;;5094691;28;20461;-77
2021/06/04 06:37:20;;;;;;;5.15;2.50;;;19.60;99.10;;;;;;5094442;28;20130;-78
2021/06/04 06:39:47;;;;;;;5.45;2.42;;;19.60;99.10;;;;;;5094109;28;20453;-76
2021/06/04 06:42:14;;;;;;;3.97;2.35;;;19.80;99.10;;;;;;5093651;28;20036;-79
2021/06/04 06:44:41;;;;;;;4.38;2.33;;;19.90;98.80;;;;;;5094295;28;20131;-79
2021/06/04 06:47:08;;;;;;;3.85;2.40;;;19.90;98.50;;;;;;5094058;28;20399;-79
2021/06/04 06:49:36;;;;;;;5.10;2.50;;;20.10;98.20;;;;;;5093861;28;20131;-79
2021/06/04 06:52:04;;;;;;;5.38;2.65;;;20.10;97.80;;;;;;5093929;28;20131;-83
2021/06/04 06:54:33;;;;;;;4.07;2.28;;;20.20;97.60;;;;;;5090988;28;20052;-83
2021/06/04 06:57:00;;;;;;;3.63;2.40;;;20.30;97.50;;;;;;5094492;28;20098;-83
2021/06/04 06:59:30;;;;;;;4.72;2.40;;;20.40;97.10;;;;;;5094982;28;20536;-81
2021/06/04 07:01:58;;;;;;;3.97;2.40;;;20.50;96.80;;;;;;5098431;28;20048;-81
2021/06/04 07:04:25;;;;;;;5.00;2.40;;;20.60;96.60;;;;;;5101550;28;20056;-81
2021/06/04 07:06:53;;;;;;;4.10;2.10;;;20.70;96.10;;;;;;5102652;28;20088;-78
2021/06/04 07:09:20;;;;;;;4.93;2.47;;;20.70;95.90;;;;;;5095768;28;20082;-80
2021/06/04 07:11:53;;;;;;;4.50;2.53;;;20.80;95.80;;;;;;5091768;28;20071;-85
2021/06/04 07:14:23;;;;;;;3.78;2.20;;;20.90;95.80;;;;;;5094989;28;20143;-86
2021/06/04 07:16:50;;;;;;;3.60;2.10;;;21.00;95.50;;;;;;5095248;28;20123;-85
2021/06/04 07:19:17;;;;;;;3.78;2.10;;;21.10;95.60;;;;;;5094568;28;20572;-86
2021/06/04 07:21:45;;;;;;;3.83;2.10;;;21.10;95.40;;;;;;5078392;28;20552;-86
2021/06/04 07:24:14;;;;;;;6.05;2.80;;;21.20;95.40;;;;;;5094480;28;20052;-89
2021/06/04 07:26:43;;;;;;;4.60;2.33;;;21.20;95.20;;;;;;5093943;28;20131;-88
2021/06/04 07:29:11;;;;;;;3.53;2.10;;;21.30;95.20;;;;;;5094310;28;20135;-87
2021/06/04 07:31:39;;;;;;;4.15;1.90;;;21.30;95.20;;;;;;5091270;28;20134;-88
2021/06/04 07:34:06;;;;;;;4.05;1.95;;;21.30;95.20;;;;;;5092608;28;20044;-88
2021/06/04 07:36:37;;;;;;;3.47;2.10;;;21.30;95.10;;;;;;5075996;28;20043;-88
2021/06/04 07:39:08;;;;;;;3.85;2.10;;;21.40;95.20;;;;;;5093450;28;20079;-87
2021/06/04 07:41:36;;;;;;;3.50;2.10;;;21.50;95.20;;;;;;5094190;28;20131;-89
2021/06/04 07:44:04;;;;;;;4.68;2.30;;;21.50;95.30;;;;;;5074644;28;20060;-87
2021/06/04 07:46:32;;;;;;;4.03;2.05;;;21.50;95.00;;;;;;5093622;28;20467;-87
2021/06/04 07:48:59;;;;;;;4.55;2.28;;;21.60;95.00;;;;;;5094464;28;20146;-88
2021/06/04 07:51:32;;;;;;;4.53;2.10;;;21.60;95.00;;;;;;5093428;28;20582;-86
2021/06/04 07:53:59;;;;;;;4.18;1.88;;;21.60;95.00;;;;;;5094036;28;20088;-85
2021/06/04 07:56:27;;;;;;;5.18;2.15;;;21.70;95.20;;;;;;5093566;28;20536;-86
2021/06/04 07:58:55;;;;;;;5.68;2.20;;;21.70;95.00;;;;;;5093965;28;20476;-85
2021/06/04 08:01:22;;;;;;;4.35;2.25;;;21.80;94.90;;;;;;5093671;28;20445;-84
2021/06/04 08:03:49;;;;;;;3.53;2.20;;;21.80;94.80;;;;;;5094211;28;20084;-87
2021/06/04 08:06:20;;;;;;;4.15;2.00;;;21.90;94.80;;;;;;5093729;28;20079;-87
2021/06/04 08:08:49;;;;;;;3.10;1.90;;;22.00;94.50;;;;;;5093423;28;20419;-81
2021/06/04 08:11:25;;;;;;;3.92;1.80;;;22.00;94.20;;;;;;5082860;28;20052;-85
2021/06/04 08:13:56;;;;;;;3.15;1.80;;;22.10;93.80;;;;;;5078489;28;20043;-78
2021/06/04 08:16:23;;;;;;;3.00;1.70;;;22.10;93.60;;;;;;5093062;28;20123;-81
2021/06/04 08:18:50;;;;;;;3.20;1.75;;;22.20;93.30;;;;;;5092933;28;20131;-78
2021/06/04 08:21:22;;;;;;;4.88;1.98;;;22.30;92.80;;;;;;5092648;28;20135;-79
2021/06/04 08:23:49;;;;;;;3.58;1.88;;;22.30;92.40;;;;;;5092400;28;20143;-77
2021/06/04 08:26:20;;;;;;;4.40;1.63;;;22.40;92.50;;;;;;5093335;28;20059;-78
2021/06/04 08:28:47;;;;;;;3.75;1.88;;;22.50;92.50;;;;;;5093335;28;20161;-76
2021/06/04 08:31:18;;;;;;;4.13;2.05;;;22.50;92.40;;;;;;5093949;28;20132;-78
2021/06/04 08:33:45;;;;;;;5.93;1.90;;;22.60;92.40;;;;;;5093836;28;20084;-78
2021/06/04 08:36:17;;;;;;;4.72;2.00;;;22.70;92.40;;;;;;5102403;28;20071;-78
2021/06/04 08:38:44;;;;;;;4.05;1.95;;;22.70;92.10;;;;;;5103635;28;20076;-77
2021/06/04 08:41:24;;;;;;;3.10;1.70;;;22.80;92.10;;;;;;5102740;28;20044;-78
2021/06/04 08:44:20;;;;;;;3.92;1.75;;;22.90;92.10;;;;;;5103430;28;20044;-77
2021/06/04 08:46:56;;;;;;;3.10;1.52;;;23.00;91.90;;;;;;5093899;28;20083;-77
2021/06/04 08:49:33;;;;;;;4.15;2.20;;;23.10;91.50;;;;;;5092987;28;20090;-76
2021/06/04 08:52:20;;;;;;;3.75;1.98;;;23.10;90.90;;;;;;5092996;28;20123;-78
2021/06/04 08:54:59;;;;;;;3.80;1.75;;;23.20;91.30;;;;;;5092769;28;20126;-79
2021/06/04 08:57:45;;;;;;;3.80;1.85;;;23.30;91.10;;;;;;5095116;28;20048;-79
2021/06/04 09:00:17;;;;;;;3.45;1.67;;;23.40;91.10;;;;;;5106895;28;20086;-78
2021/06/04 09:02:48;;;;;;;3.97;1.80;;;23.50;91.10;;;;;;5124546;28;20055;-78
2021/06/04 09:05:21;;;;;;;4.28;1.98;;;23.60;90.80;;;;;;5126928;28;20044;-78
2021/06/04 09:07:50;;;;;;;4.90;2.00;;;23.70;90.60;;;;;;5128271;28;20078;-77
2021/06/04 09:10:31;;;;;;;3.53;1.80;;;23.80;90.20;;;;;;5127438;28;20404;-78
2021/06/04 09:13:06;;;;;;;3.92;2.17;;;23.80;90.20;;;;;;5125558;28;20043;-78
2021/06/04 09:15:38;;;;;;;4.35;1.90;;;23.90;89.20;;;;;;5116991;28;20131;-77
2021/06/04 09:18:12;;;;;;;3.78;1.98;;;24.00;89.00;;;;;;5116826;28;20500;-77
2021/06/04 09:20:50;;;;;;;3.75;1.85;;;24.00;89.20;;;;;;5116744;28;20185;-77
2021/06/04 09:23:22;;;;;;;5.18;2.05;;;24.00;89.70;;;;;;5116751;28;20556;-77
2021/06/04 09:25:49;;;;;;;5.47;2.10;;;24.10;88.60;;;;;;5116729;28;20105;-78
2021/06/04 09:28:30;;;;;;;3.72;1.70;;;24.20;86.20;;;;;;5116698;28;20086;-78
2021/06/04 09:31:00;;;;;;;4.68;1.70;;;24.20;86.20;;;;;;5116915;28;20079;-77
2021/06/04 09:33:33;;;;;;;4.45;2.05;;;24.30;85.80;;;;;;5116740;28;20039;-75
2021/06/04 09:36:20;;;;;;;4.90;1.70;;;24.40;85.20;;;;;;5116635;28;20375;-77
2021/06/04 09:38:50;;;;;;;4.03;1.80;;;24.50;84.60;;;;;;5116286;28;20127;-76
2021/06/04 09:41:28;;;;;;;4.63;2.20;;;24.60;84.70;;;;;;5116407;28;20047;-78
2021/06/04 09:44:22;;;;;;;4.97;2.15;;;24.80;83.40;;;;;;5116573;28;20138;-77
2021/06/04 09:47:06;;;;;;;6.47;2.33;;;24.70;83.00;;;;;;5113127;28;20135;-77
2021/06/04 09:49:48;;;;;;;4.70;1.98;;;24.80;83.00;;;;;;5116305;28;20171;-77
2021/06/04 09:52:35;;;;;;;3.50;1.83;;;24.90;81.50;;;;;;5116459;28;20086;-78
2021/06/04 09:55:26;;;;;;;3.75;1.60;;;24.90;80.30;;;;;;5115925;28;20104;-77
2021/06/04 09:58:24;;;;;;;5.88;2.08;;;25.00;80.40;;;;;;5094747;28;20098;-80
2021/06/04 10:01:09;;;;;;;4.57;1.80;;;25.10;80.10;;;;;;5077730;28;20051;-82
2021/06/04 10:03:50;;;;;;;3.75;1.65;;;25.10;79.50;;;;;;5095842;28;20131;-79
2021/06/04 10:06:40;;;;;;;4.22;2.00;;;25.20;78.80;;;;;;5095713;28;20142;-79
2021/06/04 10:09:27;;;;;;;4.82;1.90;;;25.20;77.60;;;;;;5095445;28;20122;-79
2021/06/04 10:12:06;;;;;;;3.67;1.50;;;25.30;77.50;;;;;;5077506;28;20076;-79
2021/06/04 10:14:54;;;;;;;4.15;1.88;;;25.20;77.70;;;;;;5094987;28;20048;-86
2021/06/04 10:17:43;;;;;;;4.80;1.90;;;25.20;77.50;;;;;;5091130;28;20123;-80
2021/06/04 10:20:33;;;;;;;3.33;1.60;;;25.20;77.50;;;;;;5095122;28;20080;-79
2021/06/04 10:23:26;;;;;;;4.65;2.20;;;25.10;78.20;;;;;;5095324;28;20127;-80
2021/06/04 10:25:57;;;;;;;5.28;2.25;;;25.10;78.60;;;;;;5093258;28;20151;-80
2021/06/04 10:28:43;;;;;;;5.65;2.10;;;25.10;78.90;;;;;;5094813;28;20075;-80
2021/06/04 10:31:50;;;;;;;4.25;2.03;;;25.10;78.90;;;;;;5094567;28;20164;-80
2021/06/04 10:34:59;;;;;;;4.00;2.00;;;25.10;79.30;;;;;;5093539;28;20117;-79
2021/06/04 10:37:36;;;;;;;3.97;2.00;;;25.00;80.00;;;;;;5053020;28;20094;-83
2021/06/04 10:40:15;;;;;;;3.55;1.92;;;25.00;80.00;;;;;;5092186;28;20572;-81
2021/06/04 10:42:57;;;;;;;4.18;1.85;;;25.10;79.60;;;;;;5091885;28;20063;-79
2021/06/04 10:45:29;;;;;;;5.60;2.00;;;25.10;79.10;;;;;;5092013;28;20460;-78
2021/06/04 10:48:27;;;;;;;4.88;3.13;;;25.10;79.50;;;;;;5091401;28;20040;-79
2021/06/04 10:51:03;;;;;;;6.15;3.45;;;25.10;79.10;;;;;;5089888;28;20489;-77
2021/06/04 10:53:44;;;;;;;8.02;4.88;;;25.10;79.10;;;;;;5091651;28;20048;-78
2021/06/04 10:56:18;;;;;;;6.03;3.55;;;25.10;79.30;;;;;;5092770;28;20475;-78
2021/06/04 10:58:54;;;;;;;7.18;4.20;;;25.10;79.50;;;;;;5099671;28;20044;-78
2021/06/04 11:01:31;;;;;;;6.78;3.63;;;25.10;79.40;;;;;;5100019;28;20109;-80
2021/06/04 11:04:05;;;;;;;6.72;2.80;;;25.10;79.90;;;;;;5098687;28;20416;-80
2021/06/04 11:06:42;;;;;;;3.75;2.50;;;25.00;80.20;;;;;;5094361;28;20101;-78
2021/06/04 11:09:20;;;;;;;5.43;2.60;;;25.10;80.60;;;;;;5091916;28;20060;-76
2021/06/04 11:12:08;;;;;;;4.35;2.20;;;25.00;81.20;;;;;;5091482;28;20131;-76
2021/06/04 11:14:50;;;;;;;4.38;2.28;;;25.00;81.80;;;;;;5091071;28;20139;-80
2021/06/04 11:17:28;;;;;;;6.07;3.00;;;25.00;82.40;;;;;;5090633;28;20040;-78
2021/06/04 11:20:07;;;;;;;4.95;2.53;;;25.00;81.50;;;;;;5091320;28;20044;-78
2021/06/04 11:22:48;;;;;;;5.97;2.90;;;24.90;81.20;;;;;;5072809;28;20535;-78
2021/06/04 11:25:33;;;;;;;4.20;1.90;;;24.80;81.50;;;;;;5085332;28;20123;-82
2021/06/04 11:28:34;;;;;;;3.72;1.40;;;24.80;77.70;;;;;;5096248;28;20135;-82
2021/06/04 11:31:05;;;;;;;4.53;1.70;;;24.60;75.40;;;;;;5108983;28;20068;-83
2021/06/04 11:33:36;;;;;;;4.10;1.70;;;24.50;75.00;;;;;;5101910;28;20052;-81
2021/06/04 11:36:12;;;;;;;3.50;1.40;;;24.40;75.30;;;;;;5082596;28;20067;-82
2021/06/04 11:38:44;;;;;;;3.38;1.40;;;24.40;76.40;;;;;;5074388;28;20051;-82
2021/06/04 11:41:18;;;;;;;3.83;1.60;;;24.20;76.50;;;;;;5093632;28;20126;-83
2021/06/04 11:43:54;;;;;;;3.88;1.52;;;24.20;77.20;;;;;;5075224;28;20044;-81
2021/06/04 11:46:27;;;;;;;3.97;1.80;;;24.10;78.00;;;;;;5094063;28;20058;-81
2021/06/04 11:49:12;;;;;;;5.30;1.80;;;24.00;79.30;;;;;;5078554;28;20489;-80
2021/06/04 11:51:48;;;;;;;4.55;1.30;;;23.90;80.20;;;;;;5095432;28;20131;-82
2021/06/04 11:54:41;;;;;;;3.90;1.50;;;23.80;81.10;;;;;;5095826;28;20435;-82
2021/06/04 11:57:13;;;;;;;4.03;1.75;;;23.70;82.30;;;;;;5092912;28;20048;-81
2021/06/04 12:00:29;;;;;;;3.42;1.73;;;23.70;83.00;;;;;;5089617;28;20519;-81
2021/06/04 12:03:18;;;;;;;3.97;2.03;;;23.70;84.00;;;;;;5067554;28;20093;-82
2021/06/04 12:05:46;;;;;;;4.60;1.80;;;23.70;84.80;;;;;;5089376;28;20044;-80
2021/06/04 12:08:38;;;;;;;2.97;1.58;;;23.70;85.40;;;;;;5093197;28;20497;-80
2021/06/04 12:11:33;;;;;;;4.47;1.90;;;23.70;86.10;;;;;;5091003;28;20043;-80
2021/06/04 12:14:20;;;;;;;3.78;1.70;;;23.80;86.40;;;;;;5088082;28;20068;-80
2021/06/04 12:17:31;;;;;;;4.50;1.60;;;23.80;87.20;;;;;;5088730;28;20044;-81
2021/06/04 12:20:37;;;;;;;4.57;1.95;;;23.80;87.40;;;;;;5082557;28;20131;-80
2021/06/04 12:23:08;;;;;;;3.30;1.75;;;23.80;87.70;;;;;;5093048;28;20484;-80
2021/06/04 12:25:59;;;;;;;3.72;2.00;;;23.80;88.20;;;;;;5093339;28;20109;-81
2021/06/04 12:28:37;;;;;;;3.88;1.83;;;23.80;88.70;;;;;;5092595;28;20400;-81
2021/06/04 12:31:35;;;;;;;4.90;1.90;;;23.80;89.30;;;;;;5074863;28;20060;-82
2021/06/04 12:34:03;;;;;;;4.20;1.98;;;23.90;89.80;;;;;;5077830;28;20127;-83
2021/06/04 12:37:06;;;;;;;4.00;2.20;;;23.80;90.30;;;;;;5085425;28;20123;-81
2021/06/04 12:39:52;;;;;;;3.97;2.05;;;23.80;90.80;;;;;;5075273;28;20040;-82
2021/06/04 12:42:36;;;;;;;4.90;1.95;;;23.80;91.00;;;;;;5087159;28;20037;-82
2021/06/04 12:45:22;;;;;;;4.80;2.20;;;23.80;91.10;;;;;;5103177;28;20083;-82
2021/06/04 12:47:53;;;;;;;4.47;1.90;;;23.80;91.30;;;;;;5093716;28;20047;-81
2021/06/04 12:50:28;;;;;;;3.85;2.05;;;23.70;91.60;;;;;;5090791;28;20052;-82
2021/06/04 12:53:19;;;;;;;4.68;2.25;;;23.80;92.00;;;;;;5100013;28;20040;-83
2021/06/04 12:55:49;;;;;;;3.75;2.00;;;23.80;92.40;;;;;;5099172;28;20052;-81
2021/06/04 12:58:28;;;;;;;4.55;2.40;;;23.90;92.50;;;;;;5094973;28;20040;-81
2021/06/04 13:01:13;;;;;;;5.50;2.50;;;23.90;92.70;;;;;;5109779;28;20048;-81
2021/06/04 13:03:46;;;;;;;4.60;2.80;;;23.90;93.00;;;;;;5104486;28;20570;-80
2021/06/04 13:06:22;;;;;;;4.15;2.13;;;23.90;93.00;;;;;;5101625;28;20052;-83
2021/06/04 13:08:50;;;;;;;4.90;2.50;;;24.00;93.30;;;;;;5107658;28;20073;-81
2021/06/04 13:11:40;;;;;;;6.00;2.25;;;24.00;93.40;;;;;;5112663;28;20119;-82
2021/06/04 13:14:25;;;;;;;3.53;2.00;;;24.10;93.50;;;;;;5103550;28;20568;-82
2021/06/04 13:16:53;;;;;;;4.47;2.17;;;24.10;93.80;;;;;;5078115;28;20047;-85
2021/06/04 13:19:26;;;;;;;4.53;2.25;;;24.20;94.00;;;;;;5100861;28;20126;-83
2021/06/04 13:21:57;;;;;;;4.88;1.70;;;24.20;94.20;;;;;;5091717;28;20044;-81